Time;durP1;ratioP1;P1;durP2;ratioP2;P2;SDS_P1;SDS_P2;PMS_P1;PMS_P2;Temp;Humidity;BMP_temperature;BMP_pressure;BME280_temperature;BME280_humidity;BME280_pressure;Samples;Min_cycle;Max_cycle;Signal;HPM_P1;HPM_P2
2022/10/27 00:01:45;;;;;;;22.42;9.00;;;;;;;;;;4993699;28;99887;-76
2022/10/27 00:04:12;;;;;;;22.73;8.60;;;;;;;;;;4993530;28;100150;-78
2022/10/27 00:06:41;;;;;;;17.48;8.00;;;;;;;;;;4991845;28;99066;-77
2022/10/27 00:09:08;;;;;;;15.05;8.45;;;;;;;;;;4993843;28;98962;-77
2022/10/27 00:11:35;;;;;;;12.85;8.38;;;;;;;;;;4994008;28;99119;-77
2022/10/27 00:14:02;;;;;;;18.02;8.38;;;;;;;;;;4993313;28;98197;-77
2022/10/27 00:16:32;;;;;;;21.00;8.52;;;;;;;;;;4993904;28;98342;-78
2022/10/27 00:18:59;;;;;;;25.83;9.88;;;;;;;;;;4995433;28;100958;-78
2022/10/27 00:21:26;;;;;;;16.55;8.88;;;;;;;;;;4992997;28;99954;-78
2022/10/27 00:23:52;;;;;;;17.40;8.65;;;;;;;;;;4992697;28;100214;-77
2022/10/27 00:26:19;;;;;;;17.38;9.98;;;;;;;;;;4992638;28;98506;-77
2022/10/27 00:28:46;;;;;;;15.10;9.18;;;;;;;;;;4993235;28;99098;-78
2022/10/27 00:31:14;;;;;;;16.98;9.60;;;;;;;;;;4993309;28;100185;-77
2022/10/27 00:33:41;;;;;;;21.48;8.77;;;;;;;;;;4992990;28;99173;-78
2022/10/27 00:36:11;;;;;;;17.27;9.52;;;;;;;;;;4993830;28;99917;-78
2022/10/27 00:38:37;;;;;;;12.70;8.68;;;;;;;;;;4993524;28;98741;-77
2022/10/27 00:41:04;;;;;;;17.85;9.93;;;;;;;;;;4995608;28;98638;-77
2022/10/27 00:43:33;;;;;;;23.50;9.70;;;;;;;;;;4993330;28;100102;-77
2022/10/27 00:46:16;;;;;;;20.95;10.50;;;;;;;;;;4993836;28;99277;-77
2022/10/27 00:48:43;;;;;;;28.58;11.18;;;;;;;;;;4991797;28;100777;-77
2022/10/27 00:51:13;;;;;;;19.40;10.43;;;;;;;;;;4991590;28;100371;-77
2022/10/27 00:53:41;;;;;;;18.20;9.95;;;;;;;;;;4992412;28;98502;-78
2022/10/27 00:56:08;;;;;;;19.15;10.80;;;;;;;;;;4992428;28;99955;-77
2022/10/27 00:58:34;;;;;;;23.30;10.68;;;;;;;;;;4991504;28;99403;-78
2022/10/27 01:01:04;;;;;;;20.98;11.00;;;;;;;;;;4991349;28;99786;-77
2022/10/27 01:03:31;;;;;;;15.52;10.00;;;;;;;;;;4996675;28;99008;-77
2022/10/27 01:06:00;;;;;;;23.00;11.82;;;;;;;;;;4992093;28;98506;-77
2022/10/27 01:08:26;;;;;;;21.35;12.07;;;;;;;;;;4990982;28;99266;-78
2022/10/27 01:10:52;;;;;;;26.63;12.63;;;;;;;;;;4991143;28;100158;-77
2022/10/27 01:13:19;;;;;;;22.85;11.68;;;;;;;;;;4992043;28;98557;-77
2022/10/27 01:15:45;;;;;;;23.02;12.20;;;;;;;;;;4990915;28;100080;-78
2022/10/27 01:18:19;;;;;;;20.55;10.35;;;;;;;;;;4991492;28;100160;-78
2022/10/27 01:21:07;;;;;;;24.85;11.50;;;;;;;;;;4992317;28;98476;-78
2022/10/27 01:23:53;;;;;;;21.65;10.68;;;;;;;;;;4994351;28;99951;-78
2022/10/27 01:26:38;;;;;;;27.05;11.63;;;;;;;;;;4991586;28;98554;-77
2022/10/27 01:29:19;;;;;;;25.40;11.15;;;;;;;;;;4991729;28;99900;-77
2022/10/27 01:32:12;;;;;;;18.83;11.43;;;;;;;;;;4991196;28;100485;-76
2022/10/27 01:34:47;;;;;;;26.88;12.02;;;;;;;;;;4989206;28;99898;-77
2022/10/27 01:37:21;;;;;;;22.80;11.23;;;;;;;;;;4990794;28;99970;-77
2022/10/27 01:39:55;;;;;;;25.00;11.32;;;;;;;;;;4990864;28;99522;-77
2022/10/27 01:42:26;;;;;;;23.92;11.63;;;;;;;;;;4991529;28;98552;-77
2022/10/27 01:44:55;;;;;;;24.65;11.38;;;;;;;;;;4989394;28;99009;-77
2022/10/27 01:47:23;;;;;;;23.35;12.38;;;;;;;;;;4994338;28;99704;-77
2022/10/27 01:49:50;;;;;;;19.52;11.35;;;;;;;;;;4991524;28;100467;-77
2022/10/27 01:52:36;;;;;;;23.13;11.18;;;;;;;;;;4990657;28;100159;-78
2022/10/27 01:55:03;;;;;;;21.05;11.50;;;;;;;;;;5001446;28;98147;-77
2022/10/27 01:57:32;;;;;;;19.20;12.38;;;;;;;;;;4990520;28;99564;-77
2022/10/27 02:00:03;;;;;;;13.98;10.40;;;;;;;;;;4990697;28;99580;-77
2022/10/27 02:02:43;;;;;;;29.77;12.27;;;;;;;;;;4991019;28;99324;-77
2022/10/27 02:05:13;;;;;;;18.05;11.60;;;;;;;;;;4991406;28;99942;-77
2022/10/27 02:07:54;;;;;;;18.75;11.13;;;;;;;;;;4991168;28;100359;-77
2022/10/27 02:10:25;;;;;;;22.88;12.15;;;;;;;;;;4995393;28;98536;-77
2022/10/27 02:12:52;;;;;;;18.13;11.32;;;;;;;;;;4989845;28;99442;-76
2022/10/27 02:15:24;;;;;;;30.85;12.13;;;;;;;;;;4991723;28;99079;-76
2022/10/27 02:17:52;;;;;;;18.63;11.23;;;;;;;;;;4991205;28;100018;-76
2022/10/27 02:20:21;;;;;;;22.83;11.63;;;;;;;;;;4990406;28;99825;-76
2022/10/27 02:22:49;;;;;;;23.95;12.05;;;;;;;;;;4991186;28;98517;-76
2022/10/27 02:25:20;;;;;;;18.98;10.50;;;;;;;;;;4991526;28;99265;-77
2022/10/27 02:27:47;;;;;;;21.67;11.02;;;;;;;;;;4996359;28;101361;-76
2022/10/27 02:30:13;;;;;;;24.10;11.48;;;;;;;;;;5014046;28;98519;-77
2022/10/27 02:32:43;;;;;;;23.63;11.32;;;;;;;;;;5016945;28;99927;-77
2022/10/27 02:35:11;;;;;;;18.23;10.73;;;;;;;;;;5014017;28;98562;-76
2022/10/27 02:37:40;;;;;;;20.35;10.48;;;;;;;;;;5014428;28;100070;-76
2022/10/27 02:40:07;;;;;;;21.30;11.63;;;;;;;;;;5013201;28;99655;-77
2022/10/27 02:42:33;;;;;;;18.27;12.10;;;;;;;;;;5013255;28;99333;-76
2022/10/27 02:45:00;;;;;;;20.55;11.73;;;;;;;;;;5013728;28;100142;-76
2022/10/27 02:47:26;;;;;;;19.13;10.68;;;;;;;;;;5009643;28;99367;-77
2022/10/27 02:49:52;;;;;;;15.55;10.10;;;;;;;;;;4994137;28;98557;-76
2022/10/27 02:52:19;;;;;;;18.42;10.18;;;;;;;;;;4994024;28;100220;-77
2022/10/27 02:54:47;;;;;;;17.35;10.43;;;;;;;;;;4996233;28;99274;-77
2022/10/27 02:57:16;;;;;;;18.60;9.63;;;;;;;;;;4994322;28;100011;-76
2022/10/27 02:59:43;;;;;;;23.45;12.02;;;;;;;;;;4994863;28;100357;-76
2022/10/27 03:02:13;;;;;;;21.48;10.82;;;;;;;;;;4994303;28;98478;-78
2022/10/27 03:04:40;;;;;;;20.65;9.77;;;;;;;;;;4992635;28;100295;-77
2022/10/27 03:07:06;;;;;;;17.30;10.55;;;;;;;;;;4994384;28;100239;-77
2022/10/27 03:09:33;;;;;;;14.77;10.45;;;;;;;;;;4994183;28;97868;-77
2022/10/27 03:11:59;;;;;;;17.60;10.57;;;;;;;;;;4994130;28;99247;-77
2022/10/27 03:14:25;;;;;;;21.60;10.32;;;;;;;;;;4994128;28;100384;-77
2022/10/27 03:16:52;;;;;;;15.27;10.07;;;;;;;;;;4995426;28;99158;-75
2022/10/27 03:19:21;;;;;;;28.05;10.68;;;;;;;;;;4994002;28;99460;-76
2022/10/27 03:21:47;;;;;;;18.75;9.80;;;;;;;;;;4991160;28;98582;-76
2022/10/27 03:24:14;;;;;;;22.40;10.68;;;;;;;;;;4991451;28;100188;-76
2022/10/27 03:26:40;;;;;;;15.13;10.15;;;;;;;;;;4992844;28;100370;-76
2022/10/27 03:29:07;;;;;;;18.50;10.93;;;;;;;;;;4993204;28;98539;-77
2022/10/27 03:31:33;;;;;;;17.73;10.55;;;;;;;;;;4994264;28;99945;-77
2022/10/27 03:34:00;;;;;;;23.60;11.27;;;;;;;;;;4994322;28;99286;-77
2022/10/27 03:36:27;;;;;;;22.02;11.27;;;;;;;;;;5007983;28;98498;-77
2022/10/27 03:38:53;;;;;;;26.35;10.75;;;;;;;;;;5013423;28;100232;-77
2022/10/27 03:41:20;;;;;;;22.17;12.05;;;;;;;;;;5013165;28;99223;-77
2022/10/27 03:43:46;;;;;;;22.83;11.85;;;;;;;;;;5012637;28;99668;-77
2022/10/27 03:46:13;;;;;;;25.85;11.85;;;;;;;;;;5013184;28;99424;-77
2022/10/27 03:48:39;;;;;;;18.25;11.65;;;;;;;;;;5013926;28;98462;-77
2022/10/27 03:51:07;;;;;;;19.50;10.55;;;;;;;;;;4993214;28;99983;-77
2022/10/27 03:53:34;;;;;;;15.60;10.77;;;;;;;;;;4993560;28;100489;-78
2022/10/27 03:56:00;;;;;;;22.33;11.35;;;;;;;;;;4993317;28;98497;-77
2022/10/27 03:58:27;;;;;;;22.23;12.77;;;;;;;;;;4996405;28;99376;-77
2022/10/27 04:00:53;;;;;;;20.00;11.57;;;;;;;;;;4992486;28;98974;-78
2022/10/27 04:03:20;;;;;;;29.88;12.75;;;;;;;;;;4992893;28;99378;-77
2022/10/27 04:05:49;;;;;;;21.02;12.27;;;;;;;;;;4991819;28;101934;-77
2022/10/27 04:08:16;;;;;;;22.45;11.95;;;;;;;;;;4992933;28;99509;-77
2022/10/27 04:10:42;;;;;;;18.83;11.73;;;;;;;;;;5000467;28;100394;-77
2022/10/27 04:13:09;;;;;;;20.13;12.20;;;;;;;;;;4993152;28;99568;-77
2022/10/27 04:15:35;;;;;;;24.15;11.63;;;;;;;;;;4993746;28;98512;-77
2022/10/27 04:18:01;;;;;;;18.00;11.45;;;;;;;;;;4992747;28;99950;-77
2022/10/27 04:20:28;;;;;;;21.73;12.13;;;;;;;;;;4995319;28;100377;-77
2022/10/27 04:22:55;;;;;;;26.73;12.38;;;;;;;;;;4993127;28;97924;-77
2022/10/27 04:25:23;;;;;;;20.65;12.90;;;;;;;;;;4991686;28;99316;-76
2022/10/27 04:28:06;;;;;;;20.73;12.73;;;;;;;;;;4993496;28;99213;-77
2022/10/27 04:30:32;;;;;;;22.10;12.25;;;;;;;;;;4992494;28;100188;-77
2022/10/27 04:32:59;;;;;;;24.10;14.55;;;;;;;;;;4991543;28;100454;-77
2022/10/27 04:35:25;;;;;;;30.85;13.40;;;;;;;;;;4992371;28;98613;-77
2022/10/27 04:37:56;;;;;;;21.48;12.55;;;;;;;;;;4992119;28;100711;-77
2022/10/27 04:40:23;;;;;;;25.55;13.00;;;;;;;;;;4990598;28;102110;-77
2022/10/27 04:42:49;;;;;;;17.65;12.00;;;;;;;;;;4996219;28;99003;-76
2022/10/27 04:45:17;;;;;;;25.85;12.43;;;;;;;;;;4992670;28;99322;-77
2022/10/27 04:47:44;;;;;;;32.15;13.13;;;;;;;;;;4992371;28;97878;-77
2022/10/27 04:50:13;;;;;;;31.17;13.30;;;;;;;;;;4993180;28;98514;-77
2022/10/27 04:52:39;;;;;;;19.83;12.60;;;;;;;;;;4991637;28;100149;-78
2022/10/27 04:55:09;;;;;;;24.45;12.95;;;;;;;;;;4972907;28;99110;-77
2022/10/27 04:57:36;;;;;;;20.50;12.80;;;;;;;;;;4983215;28;100716;-75
2022/10/27 05:00:04;;;;;;;25.10;12.23;;;;;;;;;;5017012;27;98354;-77
2022/10/27 05:02:30;;;;;;;22.63;11.95;;;;;;;;;;5006620;28;98302;-77
2022/10/27 05:05:04;;;;;;;18.52;11.85;;;;;;;;;;4985705;28;98904;-76
2022/10/27 05:07:30;;;;;;;25.83;12.02;;;;;;;;;;4987223;28;98342;-76
2022/10/27 05:09:56;;;;;;;26.08;13.18;;;;;;;;;;4988027;28;99280;-77
2022/10/27 05:12:23;;;;;;;15.43;11.38;;;;;;;;;;4981015;28;99461;-77
2022/10/27 05:14:50;;;;;;;19.75;11.85;;;;;;;;;;4978159;28;98601;-77
2022/10/27 05:17:18;;;;;;;19.90;11.77;;;;;;;;;;4977484;28;99852;-76
2022/10/27 05:19:45;;;;;;;19.30;11.05;;;;;;;;;;4992301;28;100076;-77
2022/10/27 05:22:11;;;;;;;17.80;10.93;;;;;;;;;;4990967;28;98527;-77
2022/10/27 05:24:38;;;;;;;27.15;11.23;;;;;;;;;;4992554;28;100051;-77
2022/10/27 05:27:06;;;;;;;15.13;10.82;;;;;;;;;;4995038;28;100102;-76
2022/10/27 05:29:32;;;;;;;17.90;11.60;;;;;;;;;;4990303;28;100165;-76
2022/10/27 05:31:58;;;;;;;18.38;10.07;;;;;;;;;;4990457;28;99301;-76
2022/10/27 05:34:25;;;;;;;19.67;10.65;;;;;;;;;;4994210;28;98674;-76
2022/10/27 05:36:52;;;;;;;16.95;11.52;;;;;;;;;;5011446;28;100049;-76
2022/10/27 05:39:18;;;;;;;22.92;10.88;;;;;;;;;;5011394;28;99504;-76
2022/10/27 05:41:45;;;;;;;15.25;10.85;;;;;;;;;;5011463;28;98463;-77
2022/10/27 05:44:11;;;;;;;16.58;11.70;;;;;;;;;;5010387;28;99297;-77
2022/10/27 05:46:37;;;;;;;14.15;10.40;;;;;;;;;;5011004;28;100272;-76
2022/10/27 05:49:04;;;;;;;19.30;10.02;;;;;;;;;;4991902;28;98898;-76
2022/10/27 05:51:30;;;;;;;16.80;10.52;;;;;;;;;;4991120;28;100062;-77
2022/10/27 05:53:57;;;;;;;23.27;11.15;;;;;;;;;;4991004;28;98911;-77
2022/10/27 05:56:23;;;;;;;15.30;10.52;;;;;;;;;;4990218;28;98412;-76
2022/10/27 05:58:49;;;;;;;19.20;10.52;;;;;;;;;;4990426;28;99786;-76
2022/10/27 06:01:16;;;;;;;23.42;10.90;;;;;;;;;;4974550;28;97811;-76
2022/10/27 06:03:42;;;;;;;18.48;11.40;;;;;;;;;;4970807;28;99165;-76
2022/10/27 06:06:11;;;;;;;19.23;10.80;;;;;;;;;;4970485;28;100143;-76
2022/10/27 06:08:39;;;;;;;23.65;11.18;;;;;;;;;;4987334;28;99379;-76
2022/10/27 06:11:05;;;;;;;22.52;10.93;;;;;;;;;;4989995;28;99428;-76
2022/10/27 06:13:33;;;;;;;15.10;11.55;;;;;;;;;;4991084;28;98734;-76
2022/10/27 06:15:59;;;;;;;19.63;11.77;;;;;;;;;;4990153;28;99218;-76
2022/10/27 06:18:26;;;;;;;21.08;12.48;;;;;;;;;;4990008;28;99174;-76
2022/10/27 06:20:53;;;;;;;22.05;12.43;;;;;;;;;;4979917;28;98645;-76
2022/10/27 06:23:20;;;;;;;17.33;11.25;;;;;;;;;;4987093;28;100126;-75
2022/10/27 06:25:46;;;;;;;23.50;12.15;;;;;;;;;;4987968;28;99501;-76
2022/10/27 06:28:13;;;;;;;22.52;12.43;;;;;;;;;;4992464;28;98534;-77
2022/10/27 06:30:39;;;;;;;18.50;13.20;;;;;;;;;;4986796;28;99990;-75
2022/10/27 06:33:05;;;;;;;16.73;11.75;;;;;;;;;;4987450;28;99688;-76
2022/10/27 06:35:32;;;;;;;26.80;12.75;;;;;;;;;;4989046;28;100652;-75
2022/10/27 06:37:58;;;;;;;26.73;12.23;;;;;;;;;;4988851;28;99280;-76
2022/10/27 06:40:26;;;;;;;21.15;12.25;;;;;;;;;;4989769;28;98545;-75
2022/10/27 06:42:57;;;;;;;15.85;11.38;;;;;;;;;;4988357;28;99618;-75
2022/10/27 06:45:36;;;;;;;22.02;11.73;;;;;;;;;;4988901;28;99626;-74
2022/10/27 06:48:04;;;;;;;15.20;11.23;;;;;;;;;;4990154;28;98496;-74
2022/10/27 06:50:32;;;;;;;17.70;10.73;;;;;;;;;;4990744;28;100152;-74
2022/10/27 06:53:00;;;;;;;18.92;10.52;;;;;;;;;;4993325;28;99735;-76
2022/10/27 06:55:27;;;;;;;16.48;10.10;;;;;;;;;;4988269;28;99153;-75
2022/10/27 06:57:53;;;;;;;16.15;9.43;;;;;;;;;;4989320;28;100997;-76
2022/10/27 07:00:20;;;;;;;22.45;10.68;;;;;;;;;;4987900;28;99216;-76
2022/10/27 07:02:47;;;;;;;13.63;9.77;;;;;;;;;;5005910;28;99273;-75
2022/10/27 07:05:13;;;;;;;18.40;9.15;;;;;;;;;;4991462;28;100124;-75
2022/10/27 07:07:44;;;;;;;15.13;9.55;;;;;;;;;;4990814;28;98513;-76
2022/10/27 07:10:14;;;;;;;10.23;8.43;;;;;;;;;;4990695;28;99322;-76
2022/10/27 07:12:49;;;;;;;11.13;8.05;;;;;;;;;;4990227;28;100357;-75
2022/10/27 07:15:18;;;;;;;18.83;8.63;;;;;;;;;;4994677;28;98539;-75
2022/10/27 07:17:45;;;;;;;12.18;8.38;;;;;;;;;;4994319;28;100230;-77
2022/10/27 07:20:11;;;;;;;10.63;7.53;;;;;;;;;;4994634;28;98465;-75
2022/10/27 07:22:41;;;;;;;10.35;7.68;;;;;;;;;;4993448;28;99323;-75
2022/10/27 07:25:08;;;;;;;13.93;8.20;;;;;;;;;;4994296;28;99676;-75
2022/10/27 07:27:35;;;;;;;20.77;7.88;;;;;;;;;;4994750;28;98558;-75
2022/10/27 07:30:01;;;;;;;15.18;7.95;;;;;;;;;;4993736;28;100022;-75
2022/10/27 07:32:28;;;;;;;8.15;7.15;;;;;;;;;;4993898;28;99407;-75
2022/10/27 07:34:54;;;;;;;10.57;7.25;;;;;;;;;;4993647;28;98882;-75
2022/10/27 07:37:21;;;;;;;12.13;6.28;;;;;;;;;;4996989;28;99971;-75
2022/10/27 07:39:48;;;;;;;11.95;6.57;;;;;;;;;;4990354;28;97881;-75
2022/10/27 07:42:16;;;;;;;11.55;6.63;;;;;;;;;;4993330;28;98927;-75
2022/10/27 07:44:43;;;;;;;7.72;6.88;;;;;;;;;;4994320;28;100146;-76
2022/10/27 07:47:09;;;;;;;10.75;7.10;;;;;;;;;;4994247;28;99216;-76
2022/10/27 07:49:35;;;;;;;13.35;6.15;;;;;;;;;;4993879;28;100909;-75
2022/10/27 07:52:01;;;;;;;8.07;5.40;;;;;;;;;;4990530;28;99610;-77
2022/10/27 07:54:28;;;;;;;11.48;6.22;;;;;;;;;;4992369;28;100123;-77
2022/10/27 07:56:57;;;;;;;13.75;6.70;;;;;;;;;;4996936;28;99064;-77
2022/10/27 07:59:25;;;;;;;10.55;5.72;;;;;;;;;;4994350;28;98497;-76
2022/10/27 08:01:51;;;;;;;8.15;5.65;;;;;;;;;;4988478;28;99941;-75
2022/10/27 08:04:17;;;;;;;10.68;5.78;;;;;;;;;;4990299;28;101773;-75
2022/10/27 08:06:44;;;;;;;6.10;5.15;;;;;;;;;;4992652;28;99174;-75
2022/10/27 08:09:11;;;;;;;12.38;6.55;;;;;;;;;;4986932;28;99927;-76
2022/10/27 08:11:43;;;;;;;13.80;6.15;;;;;;;;;;4986280;28;99858;-75
2022/10/27 08:14:09;;;;;;;10.18;5.50;;;;;;;;;;5001446;28;99931;-74
2022/10/27 08:16:35;;;;;;;6.55;5.20;;;;;;;;;;4992031;28;98468;-77
2022/10/27 08:19:02;;;;;;;10.05;5.20;;;;;;;;;;4995926;28;100336;-76
2022/10/27 08:21:28;;;;;;;11.82;5.43;;;;;;;;;;4991751;28;99877;-75
2022/10/27 08:23:54;;;;;;;5.80;4.45;;;;;;;;;;4985340;28;99364;-76
2022/10/27 08:26:21;;;;;;;14.95;4.97;;;;;;;;;;4989726;28;99080;-76
2022/10/27 08:28:49;;;;;;;9.15;4.88;;;;;;;;;;4993003;28;100031;-76
2022/10/27 08:31:15;;;;;;;7.45;5.07;;;;;;;;;;4981529;28;99559;-77
2022/10/27 08:33:41;;;;;;;10.60;4.75;;;;;;;;;;4992000;28;98510;-77
2022/10/27 08:36:10;;;;;;;7.32;5.05;;;;;;;;;;4990563;28;99874;-76
2022/10/27 08:38:37;;;;;;;7.30;4.47;;;;;;;;;;4991013;28;100286;-76
2022/10/27 08:41:09;;;;;;;4.88;4.30;;;;;;;;;;4994143;28;100027;-75
2022/10/27 08:43:51;;;;;;;7.47;3.80;;;;;;;;;;4992720;28;100233;-76
2022/10/27 08:46:30;;;;;;;10.05;4.22;;;;;;;;;;4985612;28;99038;-76
2022/10/27 08:49:00;;;;;;;9.57;3.78;;;;;;;;;;4991586;28;99903;-77
2022/10/27 08:51:29;;;;;;;5.35;3.75;;;;;;;;;;4991924;28;100928;-77
2022/10/27 08:53:55;;;;;;;7.60;4.00;;;;;;;;;;4988572;28;97791;-77
2022/10/27 08:56:24;;;;;;;6.22;3.58;;;;;;;;;;4989574;28;98596;-76
2022/10/27 08:58:51;;;;;;;4.53;3.40;;;;;;;;;;4992458;28;100174;-76
2022/10/27 09:01:30;;;;;;;7.32;3.72;;;;;;;;;;4991007;28;99733;-78
2022/10/27 09:04:05;;;;;;;10.95;3.97;;;;;;;;;;4992543;28;100538;-76
2022/10/27 09:06:52;;;;;;;4.07;3.20;;;;;;;;;;4990676;28;98496;-75
2022/10/27 09:09:40;;;;;;;8.75;3.80;;;;;;;;;;4993142;28;98963;-82
2022/10/27 09:12:15;;;;;;;5.22;3.63;;;;;;;;;;4990900;28;100310;-77
2022/10/27 09:15:01;;;;;;;7.65;5.70;;;;;;;;;;4991460;28;101017;-77
2022/10/27 09:17:34;;;;;;;6.43;3.88;;;;;;;;;;4987962;28;100033;-77
2022/10/27 09:20:04;;;;;;;4.43;2.70;;;;;;;;;;4992730;28;99406;-78
2022/10/27 09:22:32;;;;;;;10.48;2.70;;;;;;;;;;4992320;28;98796;-76
2022/10/27 09:25:01;;;;;;;5.95;3.40;;;;;;;;;;4992792;28;99907;-76
2022/10/27 09:27:27;;;;;;;8.77;3.63;;;;;;;;;;4991709;28;100300;-75
2022/10/27 09:29:56;;;;;;;6.78;4.72;;;;;;;;;;4991355;28;100785;-77
2022/10/27 09:32:31;;;;;;;6.25;3.60;;;;;;;;;;4989791;28;99213;-76
2022/10/27 09:35:08;;;;;;;5.30;2.75;;;;;;;;;;4988699;28;98802;-76
2022/10/27 09:37:40;;;;;;;13.95;5.63;;;;;;;;;;4992185;28;99238;-79
2022/10/27 09:40:10;;;;;;;3.43;2.93;;;;;;;;;;4991956;28;100423;-78
2022/10/27 09:42:36;;;;;;;6.22;2.58;;;;;;;;;;4992319;28;98523;-78
2022/10/27 09:45:11;;;;;;;5.82;3.55;;;;;;;;;;4992218;28;101415;-78
2022/10/27 09:47:40;;;;;;;3.35;2.80;;;;;;;;;;4992446;28;99824;-78
2022/10/27 09:50:13;;;;;;;8.80;3.38;;;;;;;;;;4994063;28;98728;-78
2022/10/27 09:52:42;;;;;;;11.88;3.20;;;;;;;;;;4991380;28;101226;-78
2022/10/27 09:55:09;;;;;;;8.27;2.70;;;;;;;;;;4990638;28;98486;-78
2022/10/27 09:57:37;;;;;;;6.78;3.00;;;;;;;;;;4991067;28;99819;-78
2022/10/27 10:00:22;;;;;;;6.93;3.15;;;;;;;;;;4992357;28;100107;-78
2022/10/27 10:03:05;;;;;;;7.90;3.53;;;;;;;;;;4991761;28;99491;-79
2022/10/27 10:05:34;;;;;;;4.43;3.10;;;;;;;;;;4992806;28;99839;-78
2022/10/27 10:08:11;;;;;;;4.93;2.60;;;;;;;;;;4992075;28;100293;-78
2022/10/27 10:10:39;;;;;;;6.95;3.65;;;;;;;;;;4995612;28;97852;-78
2022/10/27 10:13:11;;;;;;;6.68;2.40;;;;;;;;;;4992007;28;100383;-78
2022/10/27 10:15:38;;;;;;;;;;;;;;;;;;4992745;28;98500;-78
2022/10/27 10:18:14;;;;;;;6.30;3.00;;;;;;;;;;4991770;28;107112;-78
2022/10/27 10:20:42;;;;;;;4.65;3.38;;;;;;;;;;4991491;28;99355;-79
2022/10/27 10:23:24;;;;;;;4.28;2.40;;;;;;;;;;4992583;28;98497;-80
2022/10/27 10:25:51;;;;;;;3.28;2.85;;;;;;;;;;4992480;28;98814;-77
2022/10/27 10:28:23;;;;;;;5.50;2.60;;;;;;;;;;4991435;28;100778;-84
2022/10/27 10:30:51;;;;;;;5.43;2.65;;;;;;;;;;4991840;28;99880;-83
2022/10/27 10:33:18;;;;;;;6.57;2.50;;;;;;;;;;4995716;28;99089;-83
2022/10/27 10:35:51;;;;;;;6.70;2.47;;;;;;;;;;4992363;28;98838;-79
2022/10/27 10:38:23;;;;;;;5.90;3.47;;;;;;;;;;4991610;28;98517;-78
2022/10/27 10:40:58;;;;;;;6.13;2.35;;;;;;;;;;4991401;28;100304;-79
2022/10/27 10:43:25;;;;;;;5.40;2.60;;;;;;;;;;4991873;28;99306;-76
2022/10/27 10:45:52;;;;;;;18.70;3.20;;;;;;;;;;4991117;28;99972;-78
2022/10/27 10:48:24;;;;;;;5.00;2.50;;;;;;;;;;4991553;28;100719;-78
2022/10/27 10:50:51;;;;;;;5.28;2.20;;;;;;;;;;4993227;28;98487;-81
2022/10/27 10:53:28;;;;;;;13.75;3.47;;;;;;;;;;4995141;28;99294;-81
2022/10/27 10:56:02;;;;;;;5.47;2.28;;;;;;;;;;4996746;28;100188;-81
2022/10/27 10:58:30;;;;;;;8.93;2.90;;;;;;;;;;4995870;28;98818;-81
2022/10/27 11:01:00;;;;;;;3.58;2.00;;;;;;;;;;4995300;28;99452;-81
2022/10/27 11:03:38;;;;;;;7.25;2.00;;;;;;;;;;4996250;28;98497;-82
2022/10/27 11:06:13;;;;;;;4.18;2.10;;;;;;;;;;4994969;28;100093;-80
2022/10/27 11:08:41;;;;;;;2.13;1.70;;;;;;;;;;4995258;28;100934;-81
2022/10/27 11:11:19;;;;;;;8.18;2.03;;;;;;;;;;5010736;28;98755;-81
2022/10/27 11:14:08;;;;;;;2.92;2.10;;;;;;;;;;4994036;28;100047;-81
2022/10/27 11:16:35;;;;;;;5.10;2.40;;;;;;;;;;4995086;28;101508;-81
2022/10/27 11:19:14;;;;;;;7.15;2.40;;;;;;;;;;4997853;28;98618;-81
2022/10/27 11:21:44;;;;;;;14.63;2.65;;;;;;;;;;4994359;28;100080;-81
2022/10/27 11:24:21;;;;;;;7.13;2.13;;;;;;;;;;4995442;28;98499;-81
2022/10/27 11:26:53;;;;;;;3.40;2.13;;;;;;;;;;4996300;28;100060;-83
2022/10/27 11:29:27;;;;;;;6.35;2.40;;;;;;;;;;4994821;28;99884;-83
2022/10/27 11:31:54;;;;;;;5.50;2.40;;;;;;;;;;4995344;28;98505;-84
2022/10/27 11:34:30;;;;;;;14.18;2.08;;;;;;;;;;4994196;28;100059;-82
2022/10/27 11:37:10;;;;;;;6.32;2.10;;;;;;;;;;4994773;28;100405;-83
2022/10/27 11:39:48;;;;;;;4.32;2.00;;;;;;;;;;4995403;28;98589;-83
2022/10/27 11:42:20;;;;;;;5.18;2.13;;;;;;;;;;4997641;28;99300;-83
2022/10/27 11:44:46;;;;;;;3.50;1.95;;;;;;;;;;4994512;28;98411;-85
2022/10/27 11:47:21;;;;;;;5.78;2.47;;;;;;;;;;4994795;28;100221;-82
2022/10/27 11:49:52;;;;;;;5.32;2.30;;;;;;;;;;4993233;28;100400;-83
2022/10/27 11:52:19;;;;;;;5.65;1.98;;;;;;;;;;4994244;28;98975;-80
2022/10/27 11:54:46;;;;;;;3.78;1.92;;;;;;;;;;4988955;28;98749;-82
2022/10/27 11:57:18;;;;;;;4.47;2.63;;;;;;;;;;4986467;28;100590;-78
2022/10/27 12:00:13;;;;;;;12.32;3.78;;;;;;;;;;4993160;28;100291;-81
2022/10/27 12:02:49;;;;;;;4.38;2.53;;;;;;;;;;4994287;28;102002;-80
2022/10/27 12:05:27;;;;;;;11.48;2.63;;;;;;;;;;4991802;28;99462;-80
2022/10/27 12:07:55;;;;;;;7.93;2.97;;;;;;;;;;4991172;28;100208;-81
2022/10/27 12:10:40;;;;;;;6.93;2.95;;;;;;;;;;4990553;28;99233;-81
2022/10/27 12:13:11;;;;;;;6.53;2.63;;;;;;;;;;4993553;28;100266;-81
2022/10/27 12:15:44;;;;;;;6.40;2.95;;;;;;;;;;4991402;28;99842;-82
2022/10/27 12:18:15;;;;;;;6.70;2.55;;;;;;;;;;4989643;28;98545;-80
2022/10/27 12:20:48;;;;;;;5.75;2.53;;;;;;;;;;4991348;28;98721;-81
2022/10/27 12:23:18;;;;;;;4.63;2.28;;;;;;;;;;4993288;28;100043;-80
2022/10/27 12:26:01;;;;;;;6.35;2.20;;;;;;;;;;4995980;28;100929;-79
2022/10/27 12:28:29;;;;;;;9.95;2.45;;;;;;;;;;4991932;28;99650;-80
2022/10/27 12:30:57;;;;;;;8.57;2.17;;;;;;;;;;4991834;28;99341;-80
2022/10/27 12:33:35;;;;;;;9.43;2.40;;;;;;;;;;4993003;28;98622;-81
2022/10/27 12:36:08;;;;;;;5.88;2.40;;;;;;;;;;4989269;28;98822;-80
2022/10/27 12:38:34;;;;;;;;;;;;;;;;;;4992405;28;100337;-79
2022/10/27 12:41:00;;;;;;;6.10;2.30;;;;;;;;;;4988171;28;118219;-80
2022/10/27 12:43:42;;;;;;;11.23;2.22;;;;;;;;;;4991655;28;100175;-79
2022/10/27 12:46:16;;;;;;;6.35;2.58;;;;;;;;;;4989179;28;100923;-80
2022/10/27 12:48:52;;;;;;;5.65;2.50;;;;;;;;;;4995820;28;98612;-79
2022/10/27 12:51:19;;;;;;;4.03;2.20;;;;;;;;;;4992289;28;99952;-81
2022/10/27 12:53:48;;;;;;;6.82;2.70;;;;;;;;;;4990983;28;99744;-81
2022/10/27 12:56:28;;;;;;;6.00;2.65;;;;;;;;;;4993511;28;99603;-79
2022/10/27 12:59:00;;;;;;;8.73;2.00;;;;;;;;;;4989781;28;100036;-81
2022/10/27 13:01:46;;;;;;;7.20;2.50;;;;;;;;;;4992202;28;98643;-79
2022/10/27 13:04:28;;;;;;;9.95;2.50;;;;;;;;;;4990322;28;99788;-80
2022/10/27 13:06:57;;;;;;;10.27;2.35;;;;;;;;;;4989278;28;99576;-79
2022/10/27 13:09:34;;;;;;;4.35;2.00;;;;;;;;;;4990579;28;97720;-80
2022/10/27 13:12:19;;;;;;;4.43;2.10;;;;;;;;;;4985627;28;98907;-80
2022/10/27 13:14:57;;;;;;;9.65;2.58;;;;;;;;;;4994142;28;99182;-79
2022/10/27 13:17:32;;;;;;;11.57;2.47;;;;;;;;;;4984160;28;101592;-79
2022/10/27 13:20:03;;;;;;;8.18;2.47;;;;;;;;;;4990785;28;100437;-80
2022/10/27 13:22:40;;;;;;;3.72;1.83;;;;;;;;;;4992500;28;98606;-81
2022/10/27 13:25:12;;;;;;;7.10;1.90;;;;;;;;;;4983731;28;100205;-81
2022/10/27 13:27:41;;;;;;;4.25;2.42;;;;;;;;;;4972449;28;99336;-83
2022/10/27 13:30:22;;;;;;;7.32;2.03;;;;;;;;;;4981217;28;98627;-81
2022/10/27 13:32:55;;;;;;;6.15;2.35;;;;;;;;;;4993151;28;99981;-80
2022/10/27 13:35:36;;;;;;;5.65;2.30;;;;;;;;;;4995140;28;98663;-80
2022/10/27 13:38:16;;;;;;;4.53;2.10;;;;;;;;;;4991667;28;99158;-80
2022/10/27 13:40:42;;;;;;;6.80;2.25;;;;;;;;;;4991245;28;100182;-80
2022/10/27 13:43:21;;;;;;;11.40;2.33;;;;;;;;;;4991444;28;99199;-80
2022/10/27 13:45:48;;;;;;;5.35;2.30;;;;;;;;;;4991949;28;100554;-79
2022/10/27 13:48:14;;;;;;;6.43;2.40;;;;;;;;;;4991371;28;99396;-80
2022/10/27 13:51:01;;;;;;;7.55;2.05;;;;;;;;;;4992451;28;98766;-80
2022/10/27 13:53:27;;;;;;;5.88;2.55;;;;;;;;;;4981764;28;99875;-80
2022/10/27 13:55:58;;;;;;;6.22;1.90;;;;;;;;;;4990334;28;100320;-80
2022/10/27 13:58:24;;;;;;;4.93;1.90;;;;;;;;;;4996105;28;98479;-79
2022/10/27 14:01:09;;;;;;;5.22;2.05;;;;;;;;;;4992587;28;98997;-79
2022/10/27 14:03:42;;;;;;;4.25;2.67;;;;;;;;;;4990110;28;98883;-78
2022/10/27 14:06:12;;;;;;;5.30;2.30;;;;;;;;;;4986919;28;100457;-79
2022/10/27 14:08:44;;;;;;;7.25;3.00;;;;;;;;;;4989243;28;101027;-79
2022/10/27 14:11:14;;;;;;;11.18;2.50;;;;;;;;;;4990383;28;98573;-79
2022/10/27 14:13:42;;;;;;;3.25;2.35;;;;;;;;;;4990747;28;99950;-80
2022/10/27 14:16:20;;;;;;;9.02;2.10;;;;;;;;;;4985837;28;100196;-79
2022/10/27 14:18:57;;;;;;;12.43;2.92;;;;;;;;;;4993145;28;98992;-79
2022/10/27 14:21:29;;;;;;;9.38;2.92;;;;;;;;;;4990008;28;100167;-79
2022/10/27 14:24:01;;;;;;;6.63;2.50;;;;;;;;;;4990246;28;98528;-79
2022/10/27 14:26:29;;;;;;;7.60;2.43;;;;;;;;;;4991716;28;100016;-81
2022/10/27 14:28:56;;;;;;;6.45;2.70;;;;;;;;;;4989832;28;99096;-79
2022/10/27 14:31:23;;;;;;;3.10;2.47;;;;;;;;;;4989992;28;100590;-80
2022/10/27 14:33:50;;;;;;;5.32;2.40;;;;;;;;;;4991367;28;99278;-80
2022/10/27 14:36:21;;;;;;;13.05;2.53;;;;;;;;;;4994340;28;100549;-80
2022/10/27 14:38:49;;;;;;;4.45;2.42;;;;;;;;;;4993904;28;98546;-80
2022/10/27 14:41:19;;;;;;;4.93;2.53;;;;;;;;;;4995717;28;101967;-79
2022/10/27 14:43:47;;;;;;;5.65;2.33;;;;;;;;;;4993062;28;98530;-79